Time;durP1;ratioP1;P1;durP2;ratioP2;P2;SDS_P1;SDS_P2;PMS_P1;PMS_P2;Temp;Humidity;BMP_temperature;BMP_pressure;BME280_temperature;BME280_humidity;BME280_pressure;Samples;Min_cycle;Max_cycle;Signal;HPM_P1;HPM_P2
2022/01/21 00:00:56;;;;;;;2.33;0.50;;;;;;;;;;5008866;28;20041;-82
2022/01/21 00:03:22;;;;;;;2.60;0.90;;;;;;;;;;5010202;28;20026;-81
2022/01/21 00:05:49;;;;;;;2.88;0.70;;;;;;;;;;5007533;28;20026;-80
2022/01/21 00:08:15;;;;;;;1.13;0.55;;;;;;;;;;5007862;28;20030;-81
2022/01/21 00:10:41;;;;;;;1.80;0.60;;;;;;;;;;5002599;28;20026;-81
2022/01/21 00:13:17;;;;;;;1.42;0.50;;;;;;;;;;5006643;28;20034;-81
2022/01/21 00:15:44;;;;;;;2.20;0.60;;;;;;;;;;5007279;28;20022;-80
2022/01/21 00:18:11;;;;;;;1.80;0.50;;;;;;;;;;5009759;28;20031;-81
2022/01/21 00:31:39;;;;;;;3.42;0.90;;;;;;;;;;5009023;28;20104;-82
2022/01/21 00:34:05;;;;;;;4.53;0.90;;;;;;;;;;4998320;28;20035;-82
2022/01/21 00:36:32;;;;;;;1.67;0.73;;;;;;;;;;5010227;28;20026;-82
2022/01/21 00:38:59;;;;;;;2.88;0.70;;;;;;;;;;5010053;28;20026;-81
2022/01/21 00:41:30;;;;;;;2.00;0.88;;;;;;;;;;5009606;28;20026;-81
2022/01/21 00:43:56;;;;;;;4.13;0.93;;;;;;;;;;5008644;28;20089;-80
2022/01/21 00:46:22;;;;;;;1.58;0.60;;;;;;;;;;5009560;28;20085;-81
2022/01/21 00:48:49;;;;;;;3.50;1.00;;;;;;;;;;5007987;28;20026;-81
2022/01/21 00:51:15;;;;;;;2.42;0.90;;;;;;;;;;5007239;28;20065;-81
2022/01/21 00:53:41;;;;;;;2.17;0.68;;;;;;;;;;5010221;28;20554;-79
2022/01/21 00:56:07;;;;;;;2.03;0.77;;;;;;;;;;5010287;28;20022;-81
2022/01/21 00:58:33;;;;;;;2.35;0.80;;;;;;;;;;5009335;28;20034;-82
2022/01/21 01:00:59;;;;;;;2.50;0.70;;;;;;;;;;5008359;28;20085;-83
2022/01/21 01:03:28;;;;;;;1.73;0.63;;;;;;;;;;5009047;28;20473;-82
2022/01/21 01:05:56;;;;;;;2.08;0.65;;;;;;;;;;5010035;28;20030;-81
2022/01/21 01:08:23;;;;;;;2.78;0.90;;;;;;;;;;5009358;28;20026;-81
2022/01/21 01:21:33;;;;;;;3.45;0.80;;;;;;;;;;5012934;28;20100;-81
2022/01/21 01:29:21;;;;;;;2.38;0.95;;;;;;;;;;5009358;28;20101;-80
2022/01/21 01:31:48;;;;;;;2.90;0.98;;;;;;;;;;5011983;28;20023;-81
2022/01/21 01:34:14;;;;;;;4.65;1.23;;;;;;;;;;5013396;28;20472;-81
2022/01/21 01:36:43;;;;;;;3.58;1.00;;;;;;;;;;5011396;28;20022;-81
2022/01/21 01:39:30;;;;;;;3.47;1.13;;;;;;;;;;5011074;28;20383;-81
2022/01/21 01:50:07;;;;;;;2.65;1.00;;;;;;;;;;5012296;28;20049;-80
2022/01/21 01:52:33;;;;;;;3.53;0.85;;;;;;;;;;5011842;28;20026;-80
2022/01/21 01:54:59;;;;;;;6.03;1.08;;;;;;;;;;5011484;28;20022;-81
2022/01/21 01:57:25;;;;;;;3.13;1.20;;;;;;;;;;5007983;28;20026;-81
2022/01/21 01:59:51;;;;;;;2.35;0.77;;;;;;;;;;5009908;28;20022;-80
2022/01/21 02:02:18;;;;;;;2.97;0.88;;;;;;;;;;5010270;28;20045;-81
2022/01/21 02:04:45;;;;;;;3.30;0.93;;;;;;;;;;5010758;28;20230;-83
2022/01/21 02:07:11;;;;;;;6.05;1.10;;;;;;;;;;5010314;28;20031;-80
2022/01/21 02:09:38;;;;;;;4.72;0.90;;;;;;;;;;5010623;28;20030;-83
2022/01/21 02:12:05;;;;;;;2.28;0.90;;;;;;;;;;5011313;28;20038;-81
2022/01/21 02:14:37;;;;;;;1.88;0.70;;;;;;;;;;5011162;28;20033;-82
2022/01/21 02:22:38;;;;;;;4.10;1.00;;;;;;;;;;5009290;28;20094;-81
2022/01/21 02:25:19;;;;;;;4.13;0.85;;;;;;;;;;5008085;28;20027;-81
2022/01/21 02:27:49;;;;;;;2.78;0.93;;;;;;;;;;5009639;28;20026;-82
2022/01/21 02:30:18;;;;;;;3.03;1.10;;;;;;;;;;5011294;28;20090;-80
2022/01/21 02:33:05;;;;;;;4.20;1.38;;;;;;;;;;5008297;28;20058;-81
2022/01/21 02:35:34;;;;;;;5.18;1.30;;;;;;;;;;5011033;28;20026;-80
2022/01/21 02:38:01;;;;;;;2.58;0.98;;;;;;;;;;5006476;28;20038;-81
2022/01/21 02:40:27;;;;;;;3.75;1.42;;;;;;;;;;5008946;28;20046;-81
2022/01/21 02:42:54;;;;;;;2.90;1.10;;;;;;;;;;5007322;28;20060;-80
2022/01/21 02:45:20;;;;;;;2.95;0.93;;;;;;;;;;5008788;28;20618;-80
2022/01/21 02:47:46;;;;;;;3.53;1.00;;;;;;;;;;5007973;28;20118;-82
2022/01/21 02:50:13;;;;;;;2.80;1.10;;;;;;;;;;5007600;28;20030;-80
2022/01/21 02:52:55;;;;;;;3.15;1.42;;;;;;;;;;5008973;28;20061;-80
2022/01/21 02:55:21;;;;;;;4.67;1.40;;;;;;;;;;5008808;28;20515;-81
2022/01/21 02:57:47;;;;;;;4.55;1.77;;;;;;;;;;5007845;28;20030;-81
2022/01/21 03:00:14;;;;;;;3.38;1.08;;;;;;;;;;5010079;28;20065;-79
2022/01/21 03:02:40;;;;;;;5.90;1.70;;;;;;;;;;5008612;28;20092;-81
2022/01/21 03:05:12;;;;;;;2.88;1.00;;;;;;;;;;5010946;28;20495;-81
2022/01/21 03:07:38;;;;;;;;;;;;;;;;;;5013578;28;20037;-81
2022/01/21 03:10:05;;;;;;;4.40;1.20;;;;;;;;;;5009829;28;19937;-81
2022/01/21 03:12:31;;;;;;;3.92;1.20;;;;;;;;;;5010085;28;20041;-81
2022/01/21 03:14:57;;;;;;;4.05;1.50;;;;;;;;;;5009296;28;20031;-80
2022/01/21 03:17:24;;;;;;;4.63;1.25;;;;;;;;;;5008362;28;20026;-81
2022/01/21 03:19:50;;;;;;;3.72;1.25;;;;;;;;;;5007510;28;20030;-80
2022/01/21 03:22:19;;;;;;;3.28;1.02;;;;;;;;;;5009396;28;20026;-81
2022/01/21 03:24:45;;;;;;;4.43;1.38;;;;;;;;;;5008551;28;20019;-81
2022/01/21 03:27:11;;;;;;;5.22;1.30;;;;;;;;;;5008165;28;20513;-81
2022/01/21 03:29:38;;;;;;;4.57;1.15;;;;;;;;;;5009324;28;20050;-81
2022/01/21 03:32:07;;;;;;;4.45;1.50;;;;;;;;;;5008817;28;20389;-82
2022/01/21 03:34:33;;;;;;;3.70;1.40;;;;;;;;;;5007801;28;20144;-81
2022/01/21 03:36:59;;;;;;;2.55;1.25;;;;;;;;;;5006747;28;20034;-80
2022/01/21 03:39:26;;;;;;;3.45;1.23;;;;;;;;;;5008714;28;20026;-80
2022/01/21 03:41:52;;;;;;;5.60;1.33;;;;;;;;;;5009410;28;20010;-80
2022/01/21 03:44:18;;;;;;;4.18;1.20;;;;;;;;;;5005420;28;20043;-81
2022/01/21 03:46:46;;;;;;;4.20;1.33;;;;;;;;;;4991242;28;20026;-82
2022/01/21 03:49:12;;;;;;;2.85;1.00;;;;;;;;;;4989297;28;20023;-81
2022/01/21 03:51:38;;;;;;;3.88;1.55;;;;;;;;;;5004889;28;20038;-81
2022/01/21 03:54:05;;;;;;;4.03;1.45;;;;;;;;;;5007017;28;20129;-80
2022/01/21 03:56:31;;;;;;;3.45;1.20;;;;;;;;;;5008246;28;20026;-82
2022/01/21 03:58:57;;;;;;;2.95;1.17;;;;;;;;;;5009028;28;20041;-82
2022/01/21 04:01:24;;;;;;;4.13;1.20;;;;;;;;;;5007005;28;20053;-82
2022/01/21 04:03:51;;;;;;;3.63;1.40;;;;;;;;;;5007754;28;20090;-82
2022/01/21 04:06:17;;;;;;;5.43;1.20;;;;;;;;;;5006228;28;20086;-82
2022/01/21 04:08:43;;;;;;;5.32;1.38;;;;;;;;;;5009849;28;20045;-81
2022/01/21 04:11:10;;;;;;;5.30;1.40;;;;;;;;;;5009166;28;20148;-82
2022/01/21 04:13:36;;;;;;;3.55;1.15;;;;;;;;;;5009967;28;20492;-81
2022/01/21 04:16:02;;;;;;;5.15;1.40;;;;;;;;;;5008277;28;20033;-82
2022/01/21 04:18:30;;;;;;;1.85;1.13;;;;;;;;;;5007904;28;20064;-81
2022/01/21 04:20:56;;;;;;;7.57;1.42;;;;;;;;;;5005599;28;20054;-81
2022/01/21 04:23:23;;;;;;;3.40;1.42;;;;;;;;;;5009227;28;20003;-81
2022/01/21 04:25:49;;;;;;;3.72;1.20;;;;;;;;;;5010887;28;20030;-82
2022/01/21 04:28:16;;;;;;;2.60;1.15;;;;;;;;;;5010527;28;20030;-81
2022/01/21 04:30:42;;;;;;;3.40;1.38;;;;;;;;;;5010782;28;20022;-81
2022/01/21 04:33:09;;;;;;;5.50;1.40;;;;;;;;;;5010703;28;20022;-82
2022/01/21 04:35:36;;;;;;;4.78;1.40;;;;;;;;;;5011427;28;20042;-82
2022/01/21 04:38:06;;;;;;;3.38;1.38;;;;;;;;;;5010986;28;20097;-81
2022/01/21 04:40:39;;;;;;;4.00;1.35;;;;;;;;;;5009543;28;20026;-82
2022/01/21 04:48:34;;;;;;;3.40;1.50;;;;;;;;;;5006668;28;20107;-81
2022/01/21 04:51:27;;;;;;;6.65;1.83;;;;;;;;;;5010031;28;20081;-82
2022/01/21 04:53:48;;;;;;;7.30;1.90;;;;;;;;;;5009964;28;20038;-82
2022/01/21 04:56:14;;;;;;;4.05;1.70;;;;;;;;;;5010502;28;20034;-82
2022/01/21 04:58:41;;;;;;;4.05;1.65;;;;;;;;;;5008696;28;20041;-82
2022/01/21 05:01:08;;;;;;;4.38;1.63;;;;;;;;;;5009626;28;20031;-81
2022/01/21 05:03:35;;;;;;;3.75;1.52;;;;;;;;;;5009877;28;20087;-81
2022/01/21 05:06:01;;;;;;;4.78;1.50;;;;;;;;;;5008025;28;20030;-82
2022/01/21 05:09:10;;;;;;;4.63;1.70;;;;;;;;;;5008432;28;20027;-82
2022/01/21 05:11:18;;;;;;;4.53;1.77;;;;;;;;;;5006846;28;20042;-82
2022/01/21 05:13:58;;;;;;;3.45;1.48;;;;;;;;;;5008645;28;20054;-82
2022/01/21 05:18:53;;;;;;;6.50;2.30;;;;;;;;;;5007943;28;20057;-81
2022/01/21 05:21:20;;;;;;;5.13;1.33;;;;;;;;;;5009520;28;20539;-81
2022/01/21 05:23:46;;;;;;;5.80;1.60;;;;;;;;;;5006514;28;20037;-82
2022/01/21 05:26:12;;;;;;;4.97;1.40;;;;;;;;;;5007478;28;20026;-82
2022/01/21 05:28:38;;;;;;;3.63;1.60;;;;;;;;;;5007434;28;20023;-82
2022/01/21 05:31:05;;;;;;;4.72;1.30;;;;;;;;;;5007472;28;20058;-81
2022/01/21 05:33:31;;;;;;;4.68;1.70;;;;;;;;;;5007966;28;20022;-82
2022/01/21 05:35:57;;;;;;;3.17;1.15;;;;;;;;;;5007996;28;20046;-81
2022/01/21 05:38:23;;;;;;;4.68;1.33;;;;;;;;;;5008186;28;20073;-81
2022/01/21 05:40:50;;;;;;;6.90;1.20;;;;;;;;;;5006667;28;20117;-82
2022/01/21 05:43:17;;;;;;;4.35;1.45;;;;;;;;;;5007770;28;20026;-82
2022/01/21 05:48:31;;;;;;;2.60;1.30;;;;;;;;;;5007843;28;20041;-82
2022/01/21 05:50:58;;;;;;;5.10;2.05;;;;;;;;;;5006560;28;20058;-82
2022/01/21 05:53:24;;;;;;;5.45;1.60;;;;;;;;;;5008126;28;20056;-81
2022/01/21 05:55:50;;;;;;;5.03;1.70;;;;;;;;;;5007598;28;20090;-81
2022/01/21 05:58:16;;;;;;;3.08;1.27;;;;;;;;;;5012572;28;20082;-82
2022/01/21 06:00:43;;;;;;;2.85;1.20;;;;;;;;;;5010458;28;20022;-82
2022/01/21 06:03:11;;;;;;;7.28;1.85;;;;;;;;;;5010156;28;20025;-81
2022/01/21 06:05:37;;;;;;;4.55;1.33;;;;;;;;;;5018970;28;20019;-82
2022/01/21 06:08:04;;;;;;;9.25;1.90;;;;;;;;;;5011256;28;20031;-82
2022/01/21 06:10:30;;;;;;;4.03;1.77;;;;;;;;;;5009690;28;20061;-81
2022/01/21 06:12:57;;;;;;;3.75;1.30;;;;;;;;;;5013923;28;20089;-81
2022/01/21 06:15:24;;;;;;;3.38;1.08;;;;;;;;;;5013875;28;20057;-81
2022/01/21 06:17:50;;;;;;;5.35;1.13;;;;;;;;;;5010451;28;20038;-81
2022/01/21 06:20:16;;;;;;;5.45;1.25;;;;;;;;;;5008273;28;20041;-80
2022/01/21 06:22:42;;;;;;;1.75;0.80;;;;;;;;;;5009413;28;20037;-81
2022/01/21 06:25:09;;;;;;;3.15;1.40;;;;;;;;;;5011989;28;20022;-80
2022/01/21 06:27:36;;;;;;;6.40;1.50;;;;;;;;;;5012211;28;20289;-81
2022/01/21 06:30:04;;;;;;;11.60;2.00;;;;;;;;;;5005358;28;20026;-82
2022/01/21 06:32:33;;;;;;;4.93;1.25;;;;;;;;;;5008766;28;20023;-81
2022/01/21 06:34:59;;;;;;;5.68;2.53;;;;;;;;;;5007600;28;20493;-81
2022/01/21 06:37:25;;;;;;;4.05;1.00;;;;;;;;;;5008424;28;20110;-83
2022/01/21 06:39:51;;;;;;;6.97;1.45;;;;;;;;;;5006620;28;20037;-82
2022/01/21 06:42:22;;;;;;;4.00;1.55;;;;;;;;;;5005889;28;20057;-83
2022/01/21 06:44:49;;;;;;;3.88;1.70;;;;;;;;;;5005655;28;20069;-83
2022/01/21 06:47:15;;;;;;;5.70;1.33;;;;;;;;;;4996720;28;20018;-82
2022/01/21 06:49:41;;;;;;;3.45;1.00;;;;;;;;;;5006505;28;20022;-82
2022/01/21 06:52:07;;;;;;;5.00;1.35;;;;;;;;;;5006548;28;20030;-82
2022/01/21 06:54:34;;;;;;;4.32;1.42;;;;;;;;;;5007718;28;20018;-82
2022/01/21 06:57:00;;;;;;;5.28;2.00;;;;;;;;;;5009342;28;20042;-81
2022/01/21 06:59:29;;;;;;;5.05;1.40;;;;;;;;;;5010173;28;20022;-82
2022/01/21 07:01:55;;;;;;;5.03;2.10;;;;;;;;;;5009204;28;20027;-82
2022/01/21 07:04:21;;;;;;;4.68;1.50;;;;;;;;;;5010168;28;20018;-81
2022/01/21 07:06:47;;;;;;;4.20;1.58;;;;;;;;;;5010067;28;20050;-82
2022/01/21 07:09:13;;;;;;;5.30;1.17;;;;;;;;;;5005324;28;20034;-82
2022/01/21 07:11:39;;;;;;;5.13;1.50;;;;;;;;;;5010588;28;20037;-82
2022/01/21 07:14:05;;;;;;;3.42;1.30;;;;;;;;;;5008504;28;20034;-80
2022/01/21 07:16:31;;;;;;;5.45;1.10;;;;;;;;;;5006295;28;20484;-80
2022/01/21 07:19:00;;;;;;;4.05;1.55;;;;;;;;;;5003181;28;20026;-82
2022/01/21 07:21:26;;;;;;;4.53;1.60;;;;;;;;;;5004456;28;20026;-81
2022/01/21 07:23:52;;;;;;;3.25;1.10;;;;;;;;;;5010560;28;20019;-80
2022/01/21 07:26:18;;;;;;;4.70;1.33;;;;;;;;;;5008488;28;20030;-81
2022/01/21 07:28:45;;;;;;;3.42;1.40;;;;;;;;;;5006373;28;20038;-81
2022/01/21 07:31:11;;;;;;;6.55;2.35;;;;;;;;;;5007741;28;20034;-82
2022/01/21 07:33:38;;;;;;;5.53;1.65;;;;;;;;;;5004237;28;20030;-81
2022/01/21 07:36:05;;;;;;;6.35;2.13;;;;;;;;;;5006104;28;20030;-81
2022/01/21 07:38:31;;;;;;;6.65;1.63;;;;;;;;;;4997299;28;20049;-82
2022/01/21 07:40:57;;;;;;;4.90;1.40;;;;;;;;;;5008548;28;20034;-82
2022/01/21 07:43:23;;;;;;;4.07;1.85;;;;;;;;;;5006876;28;20031;-82
2022/01/21 07:45:49;;;;;;;6.57;1.92;;;;;;;;;;5015945;28;20034;-81
2022/01/21 07:48:15;;;;;;;5.00;1.25;;;;;;;;;;5018569;28;20037;-82
2022/01/21 07:50:41;;;;;;;4.13;1.33;;;;;;;;;;5012810;28;20124;-82
2022/01/21 07:53:07;;;;;;;11.65;1.95;;;;;;;;;;5020344;28;20037;-81
2022/01/21 07:55:34;;;;;;;5.10;1.60;;;;;;;;;;5024613;28;20026;-81
2022/01/21 07:58:00;;;;;;;3.22;1.27;;;;;;;;;;5021838;28;20487;-81
2022/01/21 08:00:26;;;;;;;4.10;1.50;;;;;;;;;;5006385;28;20042;-81
2022/01/21 08:02:53;;;;;;;7.88;1.42;;;;;;;;;;5006898;28;20126;-81
2022/01/21 08:05:19;;;;;;;2.33;1.27;;;;;;;;;;5003463;28;20033;-81
2022/01/21 08:07:47;;;;;;;6.90;1.50;;;;;;;;;;4993252;28;20030;-80
2022/01/21 08:10:13;;;;;;;4.85;1.00;;;;;;;;;;5002935;28;20068;-81
2022/01/21 08:12:39;;;;;;;4.72;1.23;;;;;;;;;;5006916;28;20034;-81
2022/01/21 08:15:06;;;;;;;3.70;1.10;;;;;;;;;;5007219;28;20097;-84
2022/01/21 08:17:32;;;;;;;4.05;1.13;;;;;;;;;;5005925;28;20090;-82
2022/01/21 08:19:59;;;;;;;4.22;1.63;;;;;;;;;;5007311;28;20030;-82
2022/01/21 08:22:25;;;;;;;6.70;1.52;;;;;;;;;;5007599;28;20106;-82
2022/01/21 08:24:51;;;;;;;6.10;1.10;;;;;;;;;;5015652;28;20022;-81
2022/01/21 08:27:18;;;;;;;4.35;1.23;;;;;;;;;;5007993;28;20105;-83
2022/01/21 08:29:44;;;;;;;3.80;1.10;;;;;;;;;;5006258;28;20073;-82
2022/01/21 08:32:12;;;;;;;4.75;0.90;;;;;;;;;;5004406;28;20068;-83
2022/01/21 08:34:39;;;;;;;4.10;0.88;;;;;;;;;;5006748;28;20050;-79
2022/01/21 08:37:07;;;;;;;5.00;1.30;;;;;;;;;;5006727;28;20045;-81
2022/01/21 08:39:33;;;;;;;3.67;1.23;;;;;;;;;;5005490;28;20027;-81
2022/01/21 08:42:00;;;;;;;3.20;1.10;;;;;;;;;;5007067;28;20026;-81
2022/01/21 08:44:26;;;;;;;8.48;1.92;;;;;;;;;;5005272;28;20092;-80
2022/01/21 08:46:52;;;;;;;9.00;1.35;;;;;;;;;;5004896;28;20030;-81
2022/01/21 08:49:20;;;;;;;6.75;2.05;;;;;;;;;;5005486;28;20046;-80
2022/01/21 08:51:57;;;;;;;3.13;1.38;;;;;;;;;;5005480;28;20018;-81
2022/01/21 08:54:24;;;;;;;5.55;1.73;;;;;;;;;;5016053;28;20048;-81
2022/01/21 08:56:51;;;;;;;5.35;1.60;;;;;;;;;;5011731;28;20030;-80
2022/01/21 08:59:18;;;;;;;3.28;1.13;;;;;;;;;;5004534;28;20026;-82
2022/01/21 09:01:45;;;;;;;3.85;1.15;;;;;;;;;;5006309;28;20142;-82
2022/01/21 09:04:11;;;;;;;7.60;1.70;;;;;;;;;;5008694;28;20030;-81
2022/01/21 09:06:37;;;;;;;5.65;1.63;;;;;;;;;;5005621;28;20027;-81
2022/01/21 09:09:06;;;;;;;3.08;0.98;;;;;;;;;;5007235;28;20023;-82
2022/01/21 09:11:32;;;;;;;3.13;1.00;;;;;;;;;;5006271;28;20026;-80
2022/01/21 09:13:59;;;;;;;5.38;1.40;;;;;;;;;;5008148;28;20050;-81
2022/01/21 09:16:25;;;;;;;5.75;1.30;;;;;;;;;;5008374;28;20025;-79
2022/01/21 09:18:55;;;;;;;8.63;1.48;;;;;;;;;;5009266;28;20088;-81
2022/01/21 09:21:24;;;;;;;6.85;1.67;;;;;;;;;;5006138;28;20033;-82
2022/01/21 09:23:50;;;;;;;4.25;1.60;;;;;;;;;;5006648;28;20029;-81
2022/01/21 09:26:18;;;;;;;10.25;2.35;;;;;;;;;;5005550;28;20018;-83
2022/01/21 09:28:44;;;;;;;4.90;1.35;;;;;;;;;;5007316;28;20165;-80
2022/01/21 09:31:11;;;;;;;5.93;1.60;;;;;;;;;;5007595;28;20037;-82
2022/01/21 09:33:46;;;;;;;4.40;1.40;;;;;;;;;;5010162;28;20058;-85
2022/01/21 09:36:12;;;;;;;10.98;2.15;;;;;;;;;;5011306;28;20038;-82
2022/01/21 09:38:39;;;;;;;9.40;2.10;;;;;;;;;;5009410;28;20026;-81
2022/01/21 09:41:06;;;;;;;7.25;1.77;;;;;;;;;;5009848;28;20030;-80
2022/01/21 09:43:37;;;;;;;5.57;1.73;;;;;;;;;;5009218;28;20027;-83
2022/01/21 09:46:07;;;;;;;6.45;1.63;;;;;;;;;;5010045;28;20062;-82
2022/01/21 09:48:37;;;;;;;4.90;1.15;;;;;;;;;;5012085;28;20022;-83
2022/01/21 09:51:06;;;;;;;4.78;1.45;;;;;;;;;;5010354;28;20034;-82
2022/01/21 09:53:39;;;;;;;6.82;1.52;;;;;;;;;;5010167;28;20022;-83
2022/01/21 09:56:06;;;;;;;4.57;1.50;;;;;;;;;;5011325;28;20026;-81
2022/01/21 09:58:33;;;;;;;6.15;1.35;;;;;;;;;;5009076;28;20042;-82
2022/01/21 10:01:00;;;;;;;3.92;1.40;;;;;;;;;;5008909;28;20061;-84
2022/01/21 10:03:26;;;;;;;4.13;1.20;;;;;;;;;;5010201;28;20058;-84
2022/01/21 10:05:53;;;;;;;8.70;2.90;;;;;;;;;;5008852;28;20058;-83
2022/01/21 10:08:30;;;;;;;4.13;1.08;;;;;;;;;;5007489;28;20034;-82
2022/01/21 10:11:01;;;;;;;3.65;1.33;;;;;;;;;;5009332;28;20026;-83
2022/01/21 10:13:30;;;;;;;6.93;1.67;;;;;;;;;;5012646;28;20030;-81
2022/01/21 10:15:56;;;;;;;5.30;1.23;;;;;;;;;;5013690;28;20022;-81
2022/01/21 10:18:23;;;;;;;5.18;1.60;;;;;;;;;;5011226;28;20035;-81
2022/01/21 10:21:01;;;;;;;6.15;1.25;;;;;;;;;;5011432;28;20479;-81
2022/01/21 10:23:29;;;;;;;7.78;2.20;;;;;;;;;;5009174;28;20025;-82
2022/01/21 10:25:56;;;;;;;4.07;1.23;;;;;;;;;;5009645;28;20082;-82
2022/01/21 10:28:24;;;;;;;6.38;1.33;;;;;;;;;;5009240;28;20030;-83
2022/01/21 10:31:03;;;;;;;4.55;1.40;;;;;;;;;;5009346;28;20026;-82
2022/01/21 10:33:29;;;;;;;2.97;1.00;;;;;;;;;;5008471;28;20041;-82
2022/01/21 10:36:15;;;;;;;8.15;1.75;;;;;;;;;;5008278;28;20035;-81
2022/01/21 10:38:45;;;;;;;3.33;1.30;;;;;;;;;;5009175;28;20027;-83
2022/01/21 10:41:16;;;;;;;4.15;1.00;;;;;;;;;;5009777;28;20114;-82
2022/01/21 10:43:43;;;;;;;3.88;1.30;;;;;;;;;;5008919;28;20046;-81
2022/01/21 10:46:14;;;;;;;3.13;1.50;;;;;;;;;;5009635;28;20022;-81
2022/01/21 10:49:00;;;;;;;4.40;1.40;;;;;;;;;;5008383;28;20478;-82
2022/01/21 10:51:31;;;;;;;7.55;1.58;;;;;;;;;;5009075;28;20102;-82
2022/01/21 10:53:58;;;;;;;5.88;2.13;;;;;;;;;;5008036;28;20046;-83
2022/01/21 10:56:25;;;;;;;8.23;1.52;;;;;;;;;;5009203;28;20023;-81
2022/01/21 10:58:53;;;;;;;3.75;1.30;;;;;;;;;;5009101;28;20133;-81
2022/01/21 11:01:25;;;;;;;4.43;1.42;;;;;;;;;;5009601;28;20034;-81
2022/01/21 11:03:58;;;;;;;4.55;1.30;;;;;;;;;;5009328;28;20022;-82
2022/01/21 11:06:27;;;;;;;5.20;1.50;;;;;;;;;;5009461;28;20031;-82
2022/01/21 11:09:12;;;;;;;3.88;1.45;;;;;;;;;;5004737;28;20401;-82
2022/01/21 11:11:38;;;;;;;3.65;1.00;;;;;;;;;;5003239;28;20035;-82
2022/01/21 11:14:10;;;;;;;4.32;1.40;;;;;;;;;;5008376;28;20196;-81
2022/01/21 11:16:38;;;;;;;5.22;1.23;;;;;;;;;;5006228;28;20500;-80
2022/01/21 11:19:09;;;;;;;3.33;1.30;;;;;;;;;;5013397;28;20021;-82
2022/01/21 11:21:43;;;;;;;4.90;1.30;;;;;;;;;;5028109;28;20018;-82
2022/01/21 11:24:10;;;;;;;4.65;1.83;;;;;;;;;;5011390;28;20022;-82
2022/01/21 11:26:36;;;;;;;5.30;2.35;;;;;;;;;;5008657;28;20034;-83
2022/01/21 11:29:04;;;;;;;8.55;3.40;;;;;;;;;;5007261;28;20065;-85
2022/01/21 11:31:30;;;;;;;4.25;1.40;;;;;;;;;;5008457;28;20092;-81
2022/01/21 11:33:56;;;;;;;4.85;1.63;;;;;;;;;;5007253;28;20040;-82
2022/01/21 11:36:23;;;;;;;4.43;1.75;;;;;;;;;;5007424;28;20035;-82
2022/01/21 11:38:53;;;;;;;3.28;1.40;;;;;;;;;;5006735;28;20031;-82
2022/01/21 11:41:20;;;;;;;5.20;1.60;;;;;;;;;;5006603;28;20487;-82
2022/01/21 11:43:52;;;;;;;6.03;1.75;;;;;;;;;;5007388;28;20106;-81
2022/01/21 11:48:57;;;;;;;4.22;1.52;;;;;;;;;;5006399;28;20058;-82
2022/01/21 11:51:27;;;;;;;3.75;1.38;;;;;;;;;;5006695;28;20033;-82
2022/01/21 11:53:58;;;;;;;5.07;2.25;;;;;;;;;;5006773;28;20057;-83
2022/01/21 11:56:43;;;;;;;6.32;2.05;;;;;;;;;;5007405;28;20038;-82
2022/01/21 11:59:10;;;;;;;8.95;2.70;;;;;;;;;;5009350;28;20022;-82
2022/01/21 12:01:46;;;;;;;4.50;1.58;;;;;;;;;;4994371;28;20027;-83
2022/01/21 12:04:13;;;;;;;4.10;1.75;;;;;;;;;;4988633;28;20019;-83
2022/01/21 12:06:39;;;;;;;4.75;1.98;;;;;;;;;;5003553;28;20050;-82
2022/01/21 12:09:10;;;;;;;6.53;1.70;;;;;;;;;;5007552;28;20057;-81
2022/01/21 12:11:37;;;;;;;4.90;1.90;;;;;;;;;;5007772;28;20027;-82
2022/01/21 12:14:07;;;;;;;4.43;1.73;;;;;;;;;;5008261;28;20030;-84
2022/01/21 12:16:56;;;;;;;4.22;1.50;;;;;;;;;;5010956;28;20055;-81
2022/01/21 12:19:34;;;;;;;4.10;1.50;;;;;;;;;;5010554;28;20031;-82
2022/01/21 12:22:14;;;;;;;8.05;2.30;;;;;;;;;;5009856;28;20094;-82
2022/01/21 12:24:47;;;;;;;5.68;1.75;;;;;;;;;;5008170;28;20037;-81
2022/01/21 12:27:13;;;;;;;5.70;2.35;;;;;;;;;;5007212;28;20068;-82
2022/01/21 12:29:42;;;;;;;7.10;1.98;;;;;;;;;;5007413;28;20049;-82
2022/01/21 12:32:34;;;;;;;5.35;2.55;;;;;;;;;;5009298;28;20044;-82
2022/01/21 12:35:07;;;;;;;4.72;1.67;;;;;;;;;;5006418;28;20030;-83
2022/01/21 12:38:04;;;;;;;5.28;2.17;;;;;;;;;;5006883;28;20065;-82
2022/01/21 12:40:34;;;;;;;5.20;2.22;;;;;;;;;;5006154;28;20045;-82
2022/01/21 12:43:00;;;;;;;9.13;2.28;;;;;;;;;;5008884;28;20027;-83
2022/01/21 12:45:26;;;;;;;3.88;1.70;;;;;;;;;;5007576;28;20042;-82
2022/01/21 12:47:52;;;;;;;5.40;2.03;;;;;;;;;;5008214;28;20033;-83
2022/01/21 12:50:34;;;;;;;7.28;1.73;;;;;;;;;;5005866;28;20037;-80
2022/01/21 12:58:18;;;;;;;6.25;1.38;;;;;;;;;;5008451;28;20057;-82
2022/01/21 13:00:44;;;;;;;3.65;1.35;;;;;;;;;;5006331;28;20038;-82
2022/01/21 13:03:22;;;;;;;3.47;1.60;;;;;;;;;;5008620;28;20022;-82
2022/01/21 13:06:02;;;;;;;4.85;1.85;;;;;;;;;;5009834;28;20229;-82
2022/01/21 13:08:36;;;;;;;6.03;1.73;;;;;;;;;;5011977;28;20034;-82
2022/01/21 13:11:33;;;;;;;4.65;1.50;;;;;;;;;;5012100;28;20037;-85
2022/01/21 13:14:24;;;;;;;6.57;3.22;;;;;;;;;;5001672;28;20068;-81
2022/01/21 13:16:55;;;;;;;7.32;2.92;;;;;;;;;;5012185;28;20038;-81
2022/01/21 13:19:45;;;;;;;8.00;2.33;;;;;;;;;;5009739;28;20090;-82
2022/01/21 13:22:23;;;;;;;5.70;1.83;;;;;;;;;;5006799;28;20102;-81
2022/01/21 13:24:57;;;;;;;7.03;2.90;;;;;;;;;;5012492;28;20049;-83
2022/01/21 13:27:24;;;;;;;5.85;2.20;;;;;;;;;;5012193;28;20023;-81
2022/01/21 13:29:52;;;;;;;6.88;2.53;;;;;;;;;;5008483;28;20026;-83
2022/01/21 13:32:23;;;;;;;4.95;2.13;;;;;;;;;;5011015;28;20022;-83
2022/01/21 13:34:49;;;;;;;9.40;2.35;;;;;;;;;;5010484;28;20081;-82
2022/01/21 13:37:18;;;;;;;4.93;1.58;;;;;;;;;;5011741;28;20057;-84
2022/01/21 13:39:46;;;;;;;4.03;1.40;;;;;;;;;;5009704;28;20041;-82
2022/01/21 13:42:14;;;;;;;3.75;1.67;;;;;;;;;;5010873;28;20086;-82
2022/01/21 13:44:44;;;;;;;5.80;2.00;;;;;;;;;;5011255;28;20069;-82
2022/01/21 13:47:28;;;;;;;5.03;1.90;;;;;;;;;;5009810;28;20022;-81
2022/01/21 13:49:59;;;;;;;5.70;1.70;;;;;;;;;;5008895;28;20035;-82
2022/01/21 13:52:57;;;;;;;5.78;1.75;;;;;;;;;;5010811;28;20030;-82
2022/01/21 13:55:55;;;;;;;5.38;1.90;;;;;;;;;;4994838;28;20027;-83
2022/01/21 13:58:26;;;;;;;5.57;1.60;;;;;;;;;;4972625;28;20537;-82
2022/01/21 14:01:12;;;;;;;5.10;1.75;;;;;;;;;;4972517;28;20051;-80
2022/01/21 14:03:40;;;;;;;5.38;2.17;;;;;;;;;;4973399;28;20027;-82
2022/01/21 14:06:10;;;;;;;4.75;1.52;;;;;;;;;;4989462;28;20096;-84
2022/01/21 14:08:36;;;;;;;8.20;2.50;;;;;;;;;;4979666;28;20051;-82
2022/01/21 14:11:27;;;;;;;6.72;1.75;;;;;;;;;;4987780;28;20023;-84
2022/01/21 14:14:04;;;;;;;6.20;1.73;;;;;;;;;;4915199;29;20064;-81
2022/01/21 14:16:37;;;;;;;6.88;2.47;;;;;;;;;;4903670;29;20072;-81
2022/01/21 14:19:09;;;;;;;6.88;2.00;;;;;;;;;;4913971;29;20135;-82
2022/01/21 14:21:36;;;;;;;4.90;1.80;;;;;;;;;;4896152;29;20033;-81
2022/01/21 14:24:12;;;;;;;4.25;1.50;;;;;;;;;;4919458;29;20063;-81
2022/01/21 14:26:43;;;;;;;9.23;4.28;;;;;;;;;;4930670;29;20047;-85
2022/01/21 14:29:09;;;;;;;3.63;1.50;;;;;;;;;;4929251;29;20059;-82
2022/01/21 14:31:37;;;;;;;4.65;1.45;;;;;;;;;;4926095;29;20112;-83
2022/01/21 14:34:05;;;;;;;5.15;1.50;;;;;;;;;;4930236;29;20043;-83
2022/01/21 14:36:32;;;;;;;4.50;1.77;;;;;;;;;;4948967;29;20036;-83
2022/01/21 14:39:19;;;;;;;4.85;1.33;;;;;;;;;;4948929;29;20047;-82
2022/01/21 14:41:49;;;;;;;5.20;1.45;;;;;;;;;;4950503;29;20044;-83
2022/01/21 14:44:17;;;;;;;4.75;1.40;;;;;;;;;;4948300;29;20042;-79
2022/01/21 14:46:44;;;;;;;3.78;1.48;;;;;;;;;;4947636;29;20044;-82
2022/01/21 14:49:11;;;;;;;4.38;1.38;;;;;;;;;;4945835;29;20030;-82
2022/01/21 14:52:00;;;;;;;10.30;1.55;;;;;;;;;;4996541;28;20046;-83
2022/01/21 14:54:30;;;;;;;2.97;1.13;;;;;;;;;;4998593;28;20030;-82
2022/01/21 14:57:00;;;;;;;4.82;1.27;;;;;;;;;;5009060;28;20029;-83
2022/01/21 14:59:26;;;;;;;3.88;1.30;;;;;;;;;;5007169;28;20050;-81
2022/01/21 15:01:57;;;;;;;3.85;1.25;;;;;;;;;;4996554;28;20069;-82
2022/01/21 15:04:23;;;;;;;6.72;1.60;;;;;;;;;;5006633;28;20026;-85
2022/01/21 15:07:08;;;;;;;5.35;1.50;;;;;;;;;;5001956;28;20031;-81
2022/01/21 15:09:37;;;;;;;8.50;1.67;;;;;;;;;;5005972;28;20033;-83
2022/01/21 15:14:23;;;;;;;3.50;1.15;;;;;;;;;;5008244;28;20077;-84
2022/01/21 15:14:58;;;;;;;8.20;2.72;;;;;;;;;;5008343;28;20041;-82
2022/01/21 15:17:28;;;;;;;7.32;2.38;;;;;;;;;;5006935;28;20026;-83
2022/01/21 15:19:57;;;;;;;5.50;1.75;;;;;;;;;;5009436;28;20026;-82
2022/01/21 15:22:25;;;;;;;5.65;2.05;;;;;;;;;;4989625;28;20029;-83
2022/01/21 15:24:52;;;;;;;6.43;2.38;;;;;;;;;;5001039;28;20512;-82
2022/01/21 15:27:18;;;;;;;5.68;2.00;;;;;;;;;;5003849;28;20036;-81
2022/01/21 15:29:45;;;;;;;6.35;2.17;;;;;;;;;;5004568;28;20085;-80
2022/01/21 15:32:12;;;;;;;5.88;2.08;;;;;;;;;;5005514;28;20034;-82
2022/01/21 15:34:39;;;;;;;4.03;1.30;;;;;;;;;;5004455;28;20062;-82
2022/01/21 15:37:15;;;;;;;5.38;2.35;;;;;;;;;;5004796;28;20054;-81
2022/01/21 15:39:43;;;;;;;4.78;1.90;;;;;;;;;;5004781;28;20053;-81
2022/01/21 15:42:09;;;;;;;4.97;1.45;;;;;;;;;;5006438;28;20026;-83
2022/01/21 15:44:36;;;;;;;5.28;1.42;;;;;;;;;;5005301;28;20050;-81
2022/01/21 15:47:03;;;;;;;5.40;1.50;;;;;;;;;;5006678;28;20077;-82
2022/01/21 15:49:29;;;;;;;4.13;1.60;;;;;;;;;;5005462;28;20022;-82
2022/01/21 15:51:55;;;;;;;4.53;1.30;;;;;;;;;;5004261;28;20026;-82
2022/01/21 15:54:23;;;;;;;6.28;1.70;;;;;;;;;;5005617;28;20029;-83